Terminal Aerodrome Forecast
Issued by NWS

Home | Current Version | Previous Version | Text Only | Print | Product List | Glossary Off
Versions: 1 2 3 4 5 6 7 8 9 10 11 12 13 14 15 16 17 18 19

129
FTUS42 KMHX 280533
TAFOAJ
TAF
KOAJ 280533Z 2806/2906 19008KT P6SM BKN020 BKN060
      TEMPO 2808/2812 BKN020
     FM281400 23008KT P6SM SCT060 SCT250
     FM281800 22010KT P6SM SCT045
     FM282300 19009KT P6SM FEW250
      AMD LTD TO CLD VIS AND WIND=

USA.gov is the U.S. government's official web portal to all federal, state and local government web resources and services.